Bayou Teche — WDG7853 — position and weather

sailwx.info

Track history (hours):
 
Tides and Currents Weather Stations Pressure Air Temp Water Temp Dewpoint Dewpoint Depression Visibility Wind Speed Wind Dir Waves Ship Positions

Bayou Teche

Owner: Weeks Marine, Inc., Cranford, NJ. More information available from US FCC via Universal Licensing System and Coast Guard Vessel Documentation Center.

Last reported at 2017-Sep-21 13:40 UTC. Time now 2017-Oct-18 20:29 UTC.
Position N 29°37' W 095°01'.
Warning: this ship's position is 27 days out of date.

Length 13 m.

Type: Other ship. MMSI: 367571480.

Date/timePositionNaut miles runAvg speedWind from/ knotsBaromVisibWave heightAir tempDewpointWater temp
2017-Sep-21 13:40N 29°37' W 095°01'0 0.0
2017-Sep-20 21:02N 29°37' W 095°01'1 0.2
2017-Sep-20 18:46N 29°37' W 094°60'0 0.2
2017-Sep-20 16:50N 29°37' W 095°00'0 0.0
2017-Sep-19 23:46N 29°37' W 095°01'  
2017-Sep-15 17:27N 30°04' W 093°27'511.9
2017-Sep-15 17:00N 30°04' W 093°21'4 7.9
2017-Sep-15 16:30N 30°05' W 093°17'61 4.8
2017-Sep-15 03:39N 29°48' W 092°09'0 0.1
2017-Sep-15 03:30N 29°48' W 092°09'0 0.0
2017-Sep-15 03:00N 29°48' W 092°09'0 0.0
2017-Sep-15 02:30N 29°48' W 092°09'0 0.0
2017-Sep-15 02:00N 29°48' W 092°09'0 0.0
2017-Sep-15 01:30N 29°48' W 092°09'0 0.0
2017-Sep-15 00:59N 29°48' W 092°09'0 0.0
2017-Sep-15 00:29N 29°48' W 092°09'0 0.0
2017-Sep-14 23:59N 29°48' W 092°09'7211.7
2017-Sep-14 17:49N 29°32' W 090°47'411.8
2017-Sep-14 17:30N 29°34' W 090°44'  
Track history (hours):
 
Tides and Currents Weather Stations Pressure Air Temp Water Temp Dewpoint Dewpoint Depression Visibility Wind Speed Wind Dir Waves Ship Positions

Bayou Teche

Owner: Weeks Marine, Inc., Cranford, NJ. More information available from US FCC via Universal Licensing System and Coast Guard Vessel Documentation Center.

Last reported at 2017-Sep-21 13:40 UTC. Time now 2017-Oct-18 20:29 UTC.
Position N 29°37' W 095°01'.
Warning: this ship's position is 27 days out of date.

Length 13 m.

Type: Other ship. MMSI: 367571480.

Date/timePositionNaut miles runAvg speedWind from/ knotsBaromVisibWave heightAir tempDewpointWater temp
2017-Sep-21 13:40N 29°37' W 095°01'0 0.0
2017-Sep-20 21:02N 29°37' W 095°01'1 0.2
2017-Sep-20 18:46N 29°37' W 094°60'0 0.2
2017-Sep-20 16:50N 29°37' W 095°00'0 0.0
2017-Sep-19 23:46N 29°37' W 095°01'  
2017-Sep-15 17:27N 30°04' W 093°27'511.9
2017-Sep-15 17:00N 30°04' W 093°21'4 7.9
2017-Sep-15 16:30N 30°05' W 093°17'61 4.8
2017-Sep-15 03:39N 29°48' W 092°09'0 0.1
2017-Sep-15 03:30N 29°48' W 092°09'0 0.0
2017-Sep-15 03:00N 29°48' W 092°09'0 0.0
2017-Sep-15 02:30N 29°48' W 092°09'0 0.0
2017-Sep-15 02:00N 29°48' W 092°09'0 0.0
2017-Sep-15 01:30N 29°48' W 092°09'0 0.0
2017-Sep-15 00:59N 29°48' W 092°09'0 0.0
2017-Sep-15 00:29N 29°48' W 092°09'0 0.0
2017-Sep-14 23:59N 29°48' W 092°09'7211.7
2017-Sep-14 17:49N 29°32' W 090°47'411.8
2017-Sep-14 17:30N 29°34' W 090°44'  

Dump ship's entire track history